Flight Track Log - Related Links

Times and Time Zones

All times are in EDT time to prevent confusion due to time zone crossing. See the DAL3741 flight status page for this flight to view local times or setup timezone preferences in your user account.

Time Position Orientation Groundspeed Altitude Reporting Facility
EDT Latitude Longitude Course Direction KTS MPH feet Rate Location/Type
Mon 04:42:40 PM 44.8833 -93.1667 66° East 155 178 2,000  Level Minneapolis TRACON
Mon 04:43:34 PM 44.8667 -93.1000 109° East 203 234 3,500 1,737 Climbing Minneapolis TRACON
Mon 04:44:34 PM 44.9033 -93.0631 36° Northeast 227 261 5,300 2,066 Climbing Minneapolis Center
Mon 04:45:36 PM 44.9764 -93.0239 21° North 277 319 7,700 2,613 Climbing Minneapolis Center
Mon 04:46:38 PM 45.0586 -92.9511 32° Northeast 297 342 10,700 2,081 Climbing Minneapolis Center
Mon 04:47:00 PM 45.0441 -92.5945 66° East  Level FlightAware Approximate
Mon 04:47:40 PM 45.1050 -92.8297 62° Northeast 349 402 12,000  Level Minneapolis Center
Mon 04:48:42 PM 45.1536 -92.6975 62° Northeast 377 434 13,600 1,452 Climbing Minneapolis Center
Mon 04:49:44 PM 45.2042 -92.5614 62° Northeast 392 451 15,000 677 Climbing Minneapolis Center
Mon 04:50:46 PM 45.2558 -92.4211 62° Northeast 401 461 15,000  Level Minneapolis Center
Mon 04:51:48 PM 45.2906 -92.2786 71° East 390 449 15,000  Level Minneapolis Center
Mon 04:52:50 PM 45.2594 -92.1050 104° East 381 438 15,000  Level Minneapolis Center
Mon 04:53:52 PM 45.2311 -91.9567 105° East 387 445 15,000  Level Minneapolis Center
Mon 04:54:54 PM 45.2033 -91.8108 105° East 384 442 15,000  Level Minneapolis Center
Mon 04:55:56 PM 45.1744 -91.6650 106° East 385 443 15,000  Level Minneapolis Center
Mon 04:56:58 PM 45.1483 -91.5181 104° East 386 444 15,000  Level Minneapolis Center
Mon 04:58:00 PM 45.1147 -91.3456 105° East 389 448 15,000  Level Minneapolis Center
Mon 04:59:02 PM 45.0881 -91.2025 105° East 389 448 15,000  Level Minneapolis Center
Mon 05:00:04 PM 45.0569 -91.0461 106° East 392 451 15,000  Level Minneapolis Center
Mon 05:01:06 PM 45.0256 -90.8906 106° East 395 455 15,000 -48 Level Minneapolis Center
Mon 05:02:08 PM 44.9953 -90.7339 105° East 396 456 14,900 -968 Descending Minneapolis Center
Mon 05:03:10 PM 44.9664 -90.5856 105° East 371 427 13,000 -2,177 Descending Minneapolis Center
Mon 05:04:12 PM 44.9372 -90.4642 109° East 342 394 10,400 -2,032 Descending Minneapolis Center
Mon 05:05:14 PM 44.8964 -90.3631 120° Southeast 283 326 8,800 -1,790 Descending Minneapolis Center
Mon 05:06:16 PM 44.8561 -90.2644 120° Southeast 277 319 6,700 -1,887 Descending Minneapolis Center
Mon 05:07:18 PM 44.8172 -90.1692 120° Southeast 269 310 4,900 -1,500 Descending Minneapolis Center
Mon 05:08:20 PM 44.7789 -90.0792 121° Southeast 262 302 3,600 -927 Descending Minneapolis Center
Mon 05:09:21 PM 44.7422 -89.9892 120° Southeast 254 292 3,000 -590 Descending Minneapolis Center

Login

Don't have an account? Register now (free) for customized features, flight alerts, and more!